Time;durP1;ratioP1;P1;durP2;ratioP2;P2;SDS_P1;SDS_P2;PMS_P1;PMS_P2;Temp;Humidity;BMP_temperature;BMP_pressure;BME280_temperature;BME280_humidity;BME280_pressure;Samples;Min_cycle;Max_cycle;Signal;HPM_P1;HPM_P2
2022/08/18 00:00:53;;;;;;;;;;;;;;;;;;6041065;23;7338;-79
2022/08/18 00:03:19;;;;;;;;;;;;;;;;;;6039946;23;7137;-81
2022/08/18 00:05:45;;;;;;;;;;;;;;;;;;6040562;23;8487;-81
2022/08/18 00:08:11;;;;;;;;;;;;;;;;;;6040329;23;8808;-83
2022/08/18 00:10:39;;;;;;;;;;;;;;;;;;6040171;23;7140;-80
2022/08/18 00:13:05;;;;;;;;;;;;;;;;;;6040717;23;8474;-82
2022/08/18 00:15:31;;;;;;;;;;;;;;;;;;6040311;23;8675;-81
2022/08/18 00:17:56;;;;;;;;;;;;;;;;;;6040229;23;8995;-81
2022/08/18 00:20:23;;;;;;;;;;;;;;;;;;6040402;23;7006;-82
2022/08/18 00:22:49;;;;;;;;;;;;;;;;;;6040128;23;8681;-80
2022/08/18 00:25:16;;;;;;;;;;;;;;;;;;6040366;23;7417;-81
2022/08/18 00:27:42;;;;;;;;;;;;;;;;;;6040417;23;8455;-82
2022/08/18 00:30:10;;;;;;;;;;;;;;;;;;6040359;23;8473;-81
2022/08/18 00:32:38;;;;;;;;;;;;;;;;;;6040194;23;8574;-81
2022/08/18 00:35:06;;;;;;;;;;;;;;;;;;6040381;23;7044;-82
2022/08/18 00:37:32;;;;;;;;;;;;;;;;;;6040022;23;7198;-80
2022/08/18 00:39:57;;;;;;;;;;;;;;;;;;6040985;23;8409;-83
2022/08/18 00:42:28;;;;;;;;;;;;;;;;;;6040779;23;8742;-81
2022/08/18 00:44:55;;;;;;;;;;;;;;;;;;6040287;23;7175;-81
2022/08/18 00:47:20;;;;;;;;;;;;;;;;;;6040013;23;8452;-81
2022/08/18 00:49:50;;;;;;;;;;;;;;;;;;6040369;23;7112;-81
2022/08/18 00:52:18;;;;;;;;;;;;;;;;;;6039825;23;8387;-81
2022/08/18 00:54:45;;;;;;;;;;;;;;;;;;6040033;23;7336;-82
2022/08/18 00:57:13;;;;;;;;;;;;;;;;;;6041002;23;7051;-82
2022/08/18 01:00:01;;;;;;;;;;;;;;;;;;6039972;23;8488;-79
2022/08/18 01:02:34;;;;;;;;;;;;;;;;;;6040210;23;8418;-82
2022/08/18 01:05:12;;;;;;;;;;;;;;;;;;6040125;23;8395;-80
2022/08/18 01:07:46;;;;;;;;;;;;;;;;;;6039961;23;7238;-83
2022/08/18 01:10:18;;;;;;;;;;;;;;;;;;6040353;23;8559;-81
2022/08/18 01:12:45;;;;;;;;;;;;;;;;;;6040024;23;8435;-80
2022/08/18 01:15:12;;;;;;;;;;;;;;;;;;6039852;23;8598;-80
2022/08/18 01:23:23;;;;;;;;;;;;;;;;;;6043069;23;6813;-81
2022/08/18 01:26:02;;;;;;;;;;;;;;;;;;6041691;23;8465;-82
2022/08/18 01:28:37;;;;;;;;;;;;;;;;;;6041790;23;7061;-80
2022/08/18 01:31:04;;;;;;;;;;;;;;;;;;6041592;23;9018;-80
2022/08/18 01:33:32;;;;;;;;;;;;;;;;;;6041755;23;9376;-80
2022/08/18 01:36:00;;;;;;;;;;;;;;;;;;6042317;23;8435;-80
2022/08/18 01:38:26;;;;;;;;;;;;;;;;;;6041744;23;9289;-81
2022/08/18 01:40:53;;;;;;;;;;;;;;;;;;6041579;23;8422;-80
2022/08/18 01:43:19;;;;;;;;;;;;;;;;;;6041629;23;8704;-81
2022/08/18 01:45:46;;;;;;;;;;;;;;;;;;6041369;23;8704;-81
2022/08/18 01:48:12;;;;;;;;;;;;;;;;;;6041671;23;8820;-79
2022/08/18 01:50:40;;;;;;;;;;;;;;;;;;6041447;23;8682;-81
2022/08/18 01:53:08;;;;;;;;;;;;;;;;;;6041367;23;7247;-80
2022/08/18 01:55:35;;;;;;;;;;;;;;;;;;6041590;23;7168;-81
2022/08/18 01:58:00;;;;;;;;;;;;;;;;;;6041379;23;8427;-82
2022/08/18 02:00:27;;;;;;;;;;;;;;;;;;6042053;23;7489;-81
2022/08/18 02:02:55;;;;;;;;;;;;;;;;;;6041436;23;8389;-81
2022/08/18 02:05:30;;;;;;;;;;;;;;;;;;6041379;23;8358;-82
2022/08/18 02:07:56;;;;;;;;;;;;;;;;;;6041153;23;7125;-80
2022/08/18 02:10:21;;;;;;;;;;;;;;;;;;6041556;23;8670;-82
2022/08/18 02:12:47;;;;;;;;;;;;;;;;;;6041222;23;8382;-81
2022/08/18 02:15:12;;;;;;;;;;;;;;;;;;6042876;23;8363;-80
2022/08/18 02:17:42;;;;;;;;;;;;;;;;;;6041550;23;8606;-80
2022/08/18 02:20:10;;;;;;;;;;;;;;;;;;6041402;23;8413;-80
2022/08/18 02:22:36;;;;;;;;;;;;;;;;;;6042774;23;8466;-80
2022/08/18 02:25:03;;;;;;;;;;;;;;;;;;6041383;23;7100;-79
2022/08/18 02:27:29;;;;;;;;;;;;;;;;;;6041191;23;7026;-79
2022/08/18 02:29:54;;;;;;;;;;;;;;;;;;6041720;23;8505;-80
2022/08/18 02:32:20;;;;;;;;;;;;;;;;;;6041454;23;7038;-80
2022/08/18 02:34:45;;;;;;;;;;;;;;;;;;6042446;23;8725;-79
2022/08/18 02:37:11;;;;;;;;;;;;;;;;;;6041185;23;8747;-79
2022/08/18 02:39:37;;;;;;;;;;;;;;;;;;6041461;23;8577;-79
2022/08/18 02:42:06;;;;;;;;;;;;;;;;;;6041111;23;8478;-80
2022/08/18 02:44:32;;;;;;;;;;;;;;;;;;6039462;23;8631;-79
2022/08/18 02:46:58;;;;;;;;;;;;;;;;;;6040593;23;7247;-79
2022/08/18 02:49:24;;;;;;;;;;;;;;;;;;6041004;23;8373;-80
2022/08/18 02:51:53;;;;;;;;;;;;;;;;;;6064770;23;7145;-80
2022/08/18 02:54:21;;;;;;;;;;;;;;;;;;6041247;23;7157;-80
2022/08/18 02:56:50;;;;;;;;;;;;;;;;;;6040887;23;8773;-80
2022/08/18 02:59:18;;;;;;;;;;;;;;;;;;6041091;23;8801;-79
2022/08/18 03:01:47;;;;;;;;;;;;;;;;;;6041486;23;8909;-79
2022/08/18 03:04:14;;;;;;;;;;;;;;;;;;6040968;23;8687;-79
2022/08/18 03:06:41;;;;;;;;;;;;;;;;;;6040053;23;7177;-79
2022/08/18 03:09:08;;;;;;;;;;;;;;;;;;6036696;23;7895;-79
2022/08/18 03:11:34;;;;;;;;;;;;;;;;;;5989246;23;7177;-80
2022/08/18 03:14:00;;;;;;;;;;;;;;;;;;5988923;23;8550;-80
2022/08/18 03:16:26;;;;;;;;;;;;;;;;;;5989171;23;8653;-78
2022/08/18 03:18:52;;;;;;;;;;;;;;;;;;5989174;23;8441;-80
2022/08/18 03:21:20;;;;;;;;;;;;;;;;;;5988946;23;7009;-79
2022/08/18 03:23:46;;;;;;;;;;;;;;;;;;5988908;23;8867;-79
2022/08/18 03:26:13;;;;;;;;;;;;;;;;;;5988430;23;8472;-80
2022/08/18 03:28:40;;;;;;;;;;;;;;;;;;5989400;23;8611;-81
2022/08/18 03:31:06;;;;;;;;;;;;;;;;;;5988368;23;7180;-79
2022/08/18 03:33:33;;;;;;;;;;;;;;;;;;5988588;23;8828;-79
2022/08/18 03:36:06;;;;;;;;;;;;;;;;;;5988822;23;9110;-80
2022/08/18 03:38:31;;;;;;;;;;;;;;;;;;5988722;23;7159;-79
2022/08/18 03:40:57;;;;;;;;;;;;;;;;;;5988725;23;8697;-79
2022/08/18 03:43:23;;;;;;;;;;;;;;;;;;5988361;23;7365;-80
2022/08/18 03:45:49;;;;;;;;;;;;;;;;;;5988218;23;8452;-80
2022/08/18 03:48:15;;;;;;;;;;;;;;;;;;5988449;23;8403;-82
2022/08/18 03:50:41;;;;;;;;;;;;;;;;;;5988889;23;7187;-82
2022/08/18 03:53:06;;;;;;;;;;;;;;;;;;5988569;23;8507;-82
2022/08/18 03:55:32;;;;;;;;;;;;;;;;;;5988439;23;8418;-82
2022/08/18 03:57:58;;;;;;;;;;;;;;;;;;5988393;23;8590;-81
2022/08/18 04:00:26;;;;;;;;;;;;;;;;;;5988412;23;7030;-81
2022/08/18 04:02:51;;;;;;;;;;;;;;;;;;5988711;23;8930;-82
2022/08/18 04:05:17;;;;;;;;;;;;;;;;;;5988757;23;8871;-82
2022/08/18 04:07:42;;;;;;;;;;;;;;;;;;5988213;23;8490;-81
2022/08/18 04:10:08;;;;;;;;;;;;;;;;;;6014880;23;9300;-82
2022/08/18 04:12:38;;;;;;;;;;;;;;;;;;6040518;23;7170;-82
2022/08/18 04:15:04;;;;;;;;;;;;;;;;;;6040171;23;7169;-82
2022/08/18 04:17:31;;;;;;;;;;;;;;;;;;6040562;23;7169;-81
2022/08/18 04:19:57;;;;;;;;;;;;;;;;;;6040189;23;7155;-83
2022/08/18 04:22:23;;;;;;;;;;;;;;;;;;6063994;23;8483;-82
2022/08/18 04:24:49;;;;;;;;;;;;;;;;;;6040346;23;8835;-82
2022/08/18 04:27:15;;;;;;;;;;;;;;;;;;6040066;23;8423;-81
2022/08/18 04:29:41;;;;;;;;;;;;;;;;;;6040320;23;8406;-81
2022/08/18 04:32:06;;;;;;;;;;;;;;;;;;6040239;23;8599;-81
2022/08/18 04:34:32;;;;;;;;;;;;;;;;;;6040162;23;8638;-82
2022/08/18 04:36:58;;;;;;;;;;;;;;;;;;6040458;23;8430;-80
2022/08/18 04:39:24;;;;;;;;;;;;;;;;;;6040753;23;8459;-81
2022/08/18 04:41:50;;;;;;;;;;;;;;;;;;6033655;23;8608;-79
2022/08/18 04:44:17;;;;;;;;;;;;;;;;;;6037624;23;8466;-79
2022/08/18 04:46:47;;;;;;;;;;;;;;;;;;6038648;23;7540;-80
2022/08/18 04:49:14;;;;;;;;;;;;;;;;;;6038397;23;8641;-79
2022/08/18 04:51:42;;;;;;;;;;;;;;;;;;6039940;23;8664;-79
2022/08/18 04:54:07;;;;;;;;;;;;;;;;;;6039827;23;8747;-80
2022/08/18 04:56:36;;;;;;;;;;;;;;;;;;6040786;23;7023;-80
2022/08/18 04:59:07;;;;;;;;;;;;;;;;;;6042244;23;7165;-80
2022/08/18 05:01:35;;;;;;;;;;;;;;;;;;6041557;23;8356;-80
2022/08/18 05:04:01;;;;;;;;;;;;;;;;;;6042114;23;7431;-80
2022/08/18 05:06:27;;;;;;;;;;;;;;;;;;6042236;23;8806;-80
2022/08/18 05:08:57;;;;;;;;;;;;;;;;;;6040922;23;7015;-79
2022/08/18 05:11:24;;;;;;;;;;;;;;;;;;5990871;23;8612;-80
2022/08/18 05:13:54;;;;;;;;;;;;;;;;;;5990618;23;8802;-80
2022/08/18 05:16:20;;;;;;;;;;;;;;;;;;5989972;23;7806;-80
2022/08/18 05:18:45;;;;;;;;;;;;;;;;;;5990273;23;8546;-80
2022/08/18 05:21:14;;;;;;;;;;;;;;;;;;5990397;23;8810;-81
2022/08/18 05:23:41;;;;;;;;;;;;;;;;;;5989884;23;8460;-80
2022/08/18 05:26:07;;;;;;;;;;;;;;;;;;5989685;23;8502;-79
2022/08/18 05:28:36;;;;;;;;;;;;;;;;;;5989743;23;8783;-80
2022/08/18 05:31:06;;;;;;;;;;;;;;;;;;5990396;23;7143;-80
2022/08/18 05:33:32;;;;;;;;;;;;;;;;;;5989901;23;8441;-81
2022/08/18 05:36:03;;;;;;;;;;;;;;;;;;5990202;23;6827;-80
2022/08/18 05:39:02;;;;;;;;;;;;;;;;;;5989720;23;7214;-80
2022/08/18 05:41:40;;;;;;;;;;;;;;;;;;5943900;23;7049;-80
2022/08/18 05:44:08;;;;;;;;;;;;;;;;;;5988945;23;8813;-78
2022/08/18 05:46:46;;;;;;;;;;;;;;;;;;6011683;23;7023;-79
2022/08/18 05:49:14;;;;;;;;;;;;;;;;;;5988636;23;8449;-79
2022/08/18 05:51:45;;;;;;;;;;;;;;;;;;5988784;23;7266;-81
2022/08/18 05:57:00;;;;;;;;;;;;;;;;;;6013633;23;7032;-80
2022/08/18 05:59:31;;;;;;;;;;;;;;;;;;5988297;23;9043;-79
2022/08/18 06:02:12;;;;;;;;;;;;;;;;;;5988341;23;7250;-79
2022/08/18 06:04:46;;;;;;;;;;;;;;;;;;5988783;23;8455;-80
2022/08/18 06:07:15;;;;;;;;;;;;;;;;;;5988236;23;7154;-79
2022/08/18 06:09:52;;;;;;;;;;;;;;;;;;6004503;23;8459;-80
2022/08/18 06:12:22;;;;;;;;;;;;;;;;;;6040131;23;7143;-80
2022/08/18 06:14:49;;;;;;;;;;;;;;;;;;6040116;23;8442;-79
2022/08/18 06:17:30;;;;;;;;;;;;;;;;;;6040115;23;7045;-79
2022/08/18 06:20:02;;;;;;;;;;;;;;;;;;6041065;23;8678;-80
2022/08/18 06:22:38;;;;;;;;;;;;;;;;;;6040678;23;7052;-80
2022/08/18 06:25:06;;;;;;;;;;;;;;;;;;6041135;23;8449;-80
2022/08/18 06:27:54;;;;;;;;;;;;;;;;;;6041884;23;7225;-84
2022/08/18 06:30:38;;;;;;;;;;;;;;;;;;6041132;23;8440;-79
2022/08/18 06:33:07;;;;;;;;;;;;;;;;;;6041950;23;8471;-79
2022/08/18 06:35:36;;;;;;;;;;;;;;;;;;6041075;23;7449;-81
2022/08/18 06:41:11;;;;;;;;;;;;;;;;;;6042296;23;6790;-80
2022/08/18 06:43:42;;;;;;;;;;;;;;;;;;6041013;23;8425;-78
2022/08/18 06:46:11;;;;;;;;;;;;;;;;;;6041063;23;7466;-79
2022/08/18 06:48:49;;;;;;;;;;;;;;;;;;6041597;23;8421;-79
2022/08/18 06:51:19;;;;;;;;;;;;;;;;;;6040716;23;8433;-81
2022/08/18 06:53:51;;;;;;;;;;;;;;;;;;6041040;23;7346;-79
2022/08/18 06:56:44;;;;;;;;;;;;;;;;;;6041067;23;9023;-81
2022/08/18 06:59:19;;;;;;;;;;;;;;;;;;6041233;23;6833;-82
2022/08/18 07:01:47;;;;;;;;;;;;;;;;;;6041506;23;8511;-80
2022/08/18 07:04:31;;;;;;;;;;;;;;;;;;6041251;23;8437;-79
2022/08/18 07:06:57;;;;;;;;;;;;;;;;;;6040757;23;8377;-80
2022/08/18 07:09:26;;;;;;;;;;;;;;;;;;6040674;23;8730;-81
2022/08/18 07:12:00;;;;;;;;;;;;;;;;;;6040750;23;7190;-81
2022/08/18 07:14:27;;;;;;;;;;;;;;;;;;6040930;23;8432;-78
2022/08/18 07:17:13;;;;;;;;;;;;;;;;;;6040771;23;8839;-80
2022/08/18 07:19:40;;;;;;;;;;;;;;;;;;6040647;23;8353;-79
2022/08/18 07:22:08;;;;;;;;;;;;;;;;;;6040431;23;8495;-78
2022/08/18 07:24:56;;;;;;;;;;;;;;;;;;6040651;23;8646;-79
2022/08/18 07:27:40;;;;;;;;;;;;;;;;;;6040166;23;6989;-81
2022/08/18 07:30:10;;;;;;;;;;;;;;;;;;6041084;23;8850;-81
2022/08/18 07:32:38;;;;;;;;;;;;;;;;;;6040696;23;7222;-81
2022/08/18 07:35:07;;;;;;;;;;;;;;;;;;6040995;23;8393;-79
2022/08/18 07:38:00;;;;;;;;;;;;;;;;;;6042705;23;8431;-81
2022/08/18 07:40:28;;;;;;;;;;;;;;;;;;6037456;23;8460;-82
2022/08/18 07:43:05;;;;;;;;;;;;;;;;;;6040674;23;8557;-79
2022/08/18 07:45:41;;;;;;;;;;;;;;;;;;6033548;23;8454;-81
2022/08/18 07:48:15;;;;;;;;;;;;;;;;;;6038409;23;8425;-79
2022/08/18 07:50:44;;;;;;;;;;;;;;;;;;6038914;23;8544;-80
2022/08/18 07:53:18;;;;;;;;;;;;;;;;;;6038816;23;8811;-80
2022/08/18 07:55:51;;;;;;;;;;;;;;;;;;6040112;23;8552;-81
2022/08/18 07:58:16;;;;;;;;;;;;;;;;;;6039159;23;7140;-81
2022/08/18 08:00:42;;;;;;;;;;;;;;;;;;6038741;23;8319;-82
2022/08/18 08:03:16;;;;;;;;;;;;;;;;;;6039515;23;8834;-82
2022/08/18 08:05:50;;;;;;;;;;;;;;;;;;6039733;23;7264;-81
2022/08/18 08:08:19;;;;;;;;;;;;;;;;;;6038757;23;9056;-80
2022/08/18 08:11:03;;;;;;;;;;;;;;;;;;6040098;23;7173;-81
2022/08/18 08:13:47;;;;;;;;;;;;;;;;;;6039360;23;8428;-81
2022/08/18 08:16:19;;;;;;;;;;;;;;;;;;6038902;23;8713;-81
2022/08/18 08:18:57;;;;;;;;;;;;;;;;;;6039380;23;7147;-81
2022/08/18 08:21:28;;;;;;;;;;;;;;;;;;6038939;23;7629;-78
2022/08/18 08:24:16;;;;;;;;;;;;;;;;;;6039414;23;8393;-82
2022/08/18 08:26:51;;;;;;;;;;;;;;;;;;6039453;23;8482;-80
2022/08/18 08:29:26;;;;;;;;;;;;;;;;;;6015373;23;8511;-83
2022/08/18 08:32:03;;;;;;;;;;;;;;;;;;6041362;23;7065;-83
2022/08/18 08:34:38;;;;;;;;;;;;;;;;;;6041371;23;7141;-80
2022/08/18 08:37:07;;;;;;;;;;;;;;;;;;6040638;23;8404;-77
2022/08/18 08:39:36;;;;;;;;;;;;;;;;;;6042026;23;7066;-78
2022/08/18 08:42:28;;;;;;;;;;;;;;;;;;6041170;23;8486;-80
2022/08/18 08:44:59;;;;;;;;;;;;;;;;;;6036613;23;7076;-79
2022/08/18 08:47:51;;;;;;;;;;;;;;;;;;6041225;23;8399;-80
2022/08/18 08:50:22;;;;;;;;;;;;;;;;;;6008695;23;8784;-80
2022/08/18 08:52:53;;;;;;;;;;;;;;;;;;6041184;23;7062;-81
2022/08/18 08:55:24;;;;;;;;;;;;;;;;;;6041483;23;8619;-81
2022/08/18 08:57:52;;;;;;;;;;;;;;;;;;6041015;23;8762;-81
2022/08/18 09:00:18;;;;;;;;;;;;;;;;;;6040457;23;8879;-80
2022/08/18 09:02:59;;;;;;;;;;;;;;;;;;6041001;23;7117;-81
2022/08/18 09:05:40;;;;;;;;;;;;;;;;;;6040931;23;7051;-81
2022/08/18 09:08:05;;;;;;;;;;;;;;;;;;6040634;23;8693;-80
2022/08/18 09:10:40;;;;;;;;;;;;;;;;;;6040748;23;7078;-80
2022/08/18 09:13:26;;;;;;;;;;;;;;;;;;6064052;23;9230;-80
2022/08/18 09:16:06;;;;;;;;;;;;;;;;;;6040222;23;8408;-81
2022/08/18 09:18:37;;;;;;;;;;;;;;;;;;6040885;23;8327;-81
2022/08/18 09:21:16;;;;;;;;;;;;;;;;;;6041028;23;8390;-81
2022/08/18 09:23:47;;;;;;;;;;;;;;;;;;6040712;23;9130;-81
2022/08/18 09:26:31;;;;;;;;;;;;;;;;;;6040906;23;7171;-80
2022/08/18 09:29:12;;;;;;;;;;;;;;;;;;6040060;23;8478;-81
2022/08/18 09:31:40;;;;;;;;;;;;;;;;;;6041169;23;8694;-81
2022/08/18 09:34:16;;;;;;;;;;;;;;;;;;6040620;23;8432;-80
2022/08/18 09:36:53;;;;;;;;;;;;;;;;;;6039974;23;8410;-81
2022/08/18 09:42:40;;;;;;;;;;;;;;;;;;6041446;23;6801;-81
2022/08/18 09:45:28;;;;;;;;;;;;;;;;;;6040418;23;8703;-81
2022/08/18 09:47:55;;;;;;;;;;;;;;;;;;6038622;23;7172;-80
2022/08/18 09:50:40;;;;;;;;;;;;;;;;;;6039676;23;8416;-81
2022/08/18 09:53:32;;;;;;;;;;;;;;;;;;6023900;23;8324;-80
2022/08/18 09:55:58;;;;;;;;;;;;;;;;;;6039484;23;8410;-79
2022/08/18 09:58:23;;;;;;;;;;;;;;;;;;6039757;23;8535;-80
2022/08/18 10:01:07;;;;;;;;;;;;;;;;;;6039813;23;8626;-81
2022/08/18 10:03:33;;;;;;;;;;;;;;;;;;6042620;23;8335;-80
2022/08/18 10:06:06;;;;;;;;;;;;;;;;;;6041829;23;8339;-82
2022/08/18 10:08:47;;;;;;;;;;;;;;;;;;6041497;23;7147;-81
2022/08/18 10:11:13;;;;;;;;;;;;;;;;;;6039719;23;8577;-77
2022/08/18 10:14:02;;;;;;;;;;;;;;;;;;6041299;23;7148;-81
2022/08/18 10:16:27;;;;;;;;;;;;;;;;;;6040468;23;8572;-78
2022/08/18 10:19:08;;;;;;;;;;;;;;;;;;6040874;23;8468;-79
2022/08/18 10:21:52;;;;;;;;;;;;;;;;;;6040489;23;8473;-79
2022/08/18 10:24:20;;;;;;;;;;;;;;;;;;6039406;23;8290;-76
2022/08/18 10:26:45;;;;;;;;;;;;;;;;;;6039345;23;8518;-77
2022/08/18 10:29:33;;;;;;;;;;;;;;;;;;6040012;23;9484;-78
2022/08/18 10:31:58;;;;;;;;;;;;;;;;;;6040212;23;8541;-76
2022/08/18 10:34:45;;;;;;;;;;;;;;;;;;6040261;23;8351;-77
2022/08/18 10:37:10;;;;;;;;;;;;;;;;;;6040688;23;8702;-79
2022/08/18 10:39:38;;;;;;;;;;;;;;;;;;6039765;23;8499;-79
2022/08/18 10:42:23;;;;;;;;;;;;;;;;;;6040867;23;8401;-80
2022/08/18 10:44:52;;;;;;;;;;;;;;;;;;6040149;23;8418;-82
2022/08/18 10:47:23;;;;;;;;;;;;;;;;;;6041039;23;7067;-81
2022/08/18 10:49:50;;;;;;;;;;;;;;;;;;6041086;23;7191;-83
2022/08/18 10:52:34;;;;;;;;;;;;;;;;;;6040968;23;8426;-82
2022/08/18 10:55:18;;;;;;;;;;;;;;;;;;6040985;23;8485;-82
2022/08/18 10:57:46;;;;;;;;;;;;;;;;;;6040194;23;8422;-82
2022/08/18 11:00:16;;;;;;;;;;;;;;;;;;6040786;23;8718;-82
2022/08/18 11:03:00;;;;;;;;;;;;;;;;;;6040835;23;8427;-81
2022/08/18 11:05:26;;;;;;;;;;;;;;;;;;6040952;23;9393;-82
2022/08/18 11:08:02;;;;;;;;;;;;;;;;;;6040283;23;8811;-79
2022/08/18 11:10:34;;;;;;;;;;;;;;;;;;6040862;23;8850;-79
2022/08/18 11:13:07;;;;;;;;;;;;;;;;;;6041085;23;7364;-79
2022/08/18 11:15:33;;;;;;;;;;;;;;;;;;6040789;23;8487;-79
2022/08/18 11:18:07;;;;;;;;;;;;;;;;;;6041188;23;8529;-78
2022/08/18 11:20:33;;;;;;;;;;;;;;;;;;6040603;23;8435;-84
2022/08/18 11:23:00;;;;;;;;;;;;;;;;;;6040549;23;8516;-83
2022/08/18 11:25:29;;;;;;;;;;;;;;;;;;6040828;23;7197;-81
2022/08/18 11:27:56;;;;;;;;;;;;;;;;;;6040399;23;9239;-82
2022/08/18 11:30:26;;;;;;;;;;;;;;;;;;6041463;23;7050;-82
2022/08/18 11:32:51;;;;;;;;;;;;;;;;;;6040540;23;8596;-81
2022/08/18 11:35:20;;;;;;;;;;;;;;;;;;6040541;23;7199;-81
2022/08/18 11:37:57;;;;;;;;;;;;;;;;;;6040585;23;7075;-80
2022/08/18 11:40:25;;;;;;;;;;;;;;;;;;6040451;23;8476;-79
2022/08/18 11:43:20;;;;;;;;;;;;;;;;;;6040549;23;8505;-80
2022/08/18 11:45:52;;;;;;;;;;;;;;;;;;6022312;23;8775;-81
2022/08/18 11:48:27;;;;;;;;;;;;;;;;;;6040392;23;8817;-81
2022/08/18 11:51:00;;;;;;;;;;;;;;;;;;6040374;23;8481;-81
2022/08/18 11:53:32;;;;;;;;;;;;;;;;;;6039956;23;8552;-80
2022/08/18 11:56:08;;;;;;;;;;;;;;;;;;6040014;23;8564;-82
2022/08/18 11:58:44;;;;;;;;;;;;;;;;;;6040068;23;8950;-82
2022/08/18 12:01:30;;;;;;;;;;;;;;;;;;6040435;23;8504;-82
2022/08/18 12:04:16;;;;;;;;;;;;;;;;;;6040302;23;8441;-81
2022/08/18 12:06:51;;;;;;;;;;;;;;;;;;6018431;23;8530;-77
2022/08/18 12:09:28;;;;;;;;;;;;;;;;;;6039252;23;7037;-85
2022/08/18 12:11:56;;;;;;;;;;;;;;;;;;6039734;23;8396;-81
2022/08/18 12:14:23;;;;;;;;;;;;;;;;;;6039038;23;8728;-81
2022/08/18 12:16:50;;;;;;;;;;;;;;;;;;6039142;23;8964;-82
2022/08/18 12:19:16;;;;;;;;;;;;;;;;;;6039602;23;8526;-80
2022/08/18 12:21:45;;;;;;;;;;;;;;;;;;6038848;23;7247;-80
2022/08/18 12:24:26;;;;;;;;;;;;;;;;;;6039157;23;8608;-81
2022/08/18 12:26:52;;;;;;;;;;;;;;;;;;6039091;23;8515;-81
2022/08/18 12:29:19;;;;;;;;;;;;;;;;;;6039257;23;8432;-82
2022/08/18 12:31:45;;;;;;;;;;;;;;;;;;6039147;23;8430;-79
2022/08/18 12:34:11;;;;;;;;;;;;;;;;;;6039076;23;8445;-79
2022/08/18 12:36:37;;;;;;;;;;;;;;;;;;6038745;23;8425;-79
2022/08/18 12:39:03;;;;;;;;;;;;;;;;;;6039432;23;8845;-82
2022/08/18 12:41:29;;;;;;;;;;;;;;;;;;6036572;23;7007;-82
2022/08/18 12:43:54;;;;;;;;;;;;;;;;;;6041163;23;8530;-81
2022/08/18 12:46:21;;;;;;;;;;;;;;;;;;6040079;23;8415;-82
2022/08/18 12:48:47;;;;;;;;;;;;;;;;;;6040124;23;8360;-80
2022/08/18 12:51:14;;;;;;;;;;;;;;;;;;6039059;23;8452;-80
2022/08/18 12:53:40;;;;;;;;;;;;;;;;;;6039103;23;7123;-80
2022/08/18 12:56:12;;;;;;;;;;;;;;;;;;6039015;23;7060;-80
2022/08/18 12:58:37;;;;;;;;;;;;;;;;;;6038873;23;8523;-80
2022/08/18 13:01:03;;;;;;;;;;;;;;;;;;6039138;23;8421;-79
2022/08/18 13:03:28;;;;;;;;;;;;;;;;;;6039299;23;8557;-82
2022/08/18 13:05:54;;;;;;;;;;;;;;;;;;6038871;23;8489;-80
2022/08/18 13:08:21;;;;;;;;;;;;;;;;;;6039248;23;8407;-82
2022/08/18 13:10:47;;;;;;;;;;;;;;;;;;6039053;23;8486;-80
2022/08/18 13:13:18;;;;;;;;;;;;;;;;;;6038773;23;8480;-82
2022/08/18 13:15:44;;;;;;;;;;;;;;;;;;6038766;23;8642;-80
2022/08/18 13:18:11;;;;;;;;;;;;;;;;;;6040389;23;8930;-81
2022/08/18 13:20:38;;;;;;;;;;;;;;;;;;6040478;23;7086;-80
2022/08/18 13:23:04;;;;;;;;;;;;;;;;;;6040481;23;7356;-80
2022/08/18 13:25:29;;;;;;;;;;;;;;;;;;6041084;23;8970;-80
2022/08/18 13:27:56;;;;;;;;;;;;;;;;;;6040430;23;8617;-80
2022/08/18 13:30:23;;;;;;;;;;;;;;;;;;6041245;23;9404;-81
2022/08/18 13:32:49;;;;;;;;;;;;;;;;;;6040789;23;9066;-81
2022/08/18 13:35:14;;;;;;;;;;;;;;;;;;6040914;23;8753;-82
2022/08/18 13:37:40;;;;;;;;;;;;;;;;;;6040402;23;7209;-80
2022/08/18 13:40:07;;;;;;;;;;;;;;;;;;6040755;23;7078;-82
2022/08/18 13:42:41;;;;;;;;;;;;;;;;;;6040096;23;8784;-85
2022/08/18 13:45:07;;;;;;;;;;;;;;;;;;6040854;23;8414;-81
2022/08/18 13:47:33;;;;;;;;;;;;;;;;;;6041438;23;8853;-81
2022/08/18 13:49:59;;;;;;;;;;;;;;;;;;6041299;23;8895;-80
2022/08/18 13:52:25;;;;;;;;;;;;;;;;;;6041204;23;8687;-81
2022/08/18 13:54:51;;;;;;;;;;;;;;;;;;6041987;23;7271;-81
2022/08/18 13:57:18;;;;;;;;;;;;;;;;;;6041330;23;9141;-81
2022/08/18 13:59:44;;;;;;;;;;;;;;;;;;6041820;23;8830;-82
2022/08/18 14:02:11;;;;;;;;;;;;;;;;;;6041406;23;8524;-82
2022/08/18 14:04:37;;;;;;;;;;;;;;;;;;6042124;23;8439;-82
2022/08/18 14:07:04;;;;;;;;;;;;;;;;;;6040886;23;8831;-80
2022/08/18 14:09:29;;;;;;;;;;;;;;;;;;6041167;23;8457;-82
2022/08/18 14:11:56;;;;;;;;;;;;;;;;;;6041241;23;8619;-83
2022/08/18 14:14:22;;;;;;;;;;;;;;;;;;6041282;23;8522;-82
2022/08/18 14:16:48;;;;;;;;;;;;;;;;;;6041335;23;8941;-82
2022/08/18 14:27:29;;;;;;;;;;;;;;;;;;6042464;23;6848;-83
2022/08/18 14:29:58;;;;;;;;;;;;;;;;;;6041636;23;8463;-82
2022/08/18 14:32:30;;;;;;;;;;;;;;;;;;6041293;23;8424;-82
2022/08/18 14:34:58;;;;;;;;;;;;;;;;;;6041169;23;8469;-82
2022/08/18 14:37:25;;;;;;;;;;;;;;;;;;6041380;23;7290;-82
2022/08/18 14:39:50;;;;;;;;;;;;;;;;;;6041293;23;8804;-82
2022/08/18 14:42:17;;;;;;;;;;;;;;;;;;6041230;23;8506;-83
2022/08/18 14:44:44;;;;;;;;;;;;;;;;;;6041049;23;8626;-83
2022/08/18 14:47:10;;;;;;;;;;;;;;;;;;6040918;23;8804;-82
2022/08/18 14:49:36;;;;;;;;;;;;;;;;;;6040970;23;8794;-82
2022/08/18 14:52:01;;;;;;;;;;;;;;;;;;6040796;23;8461;-82
2022/08/18 14:54:28;;;;;;;;;;;;;;;;;;6040920;23;8807;-82
2022/08/18 14:56:53;;;;;;;;;;;;;;;;;;6040853;23;7213;-83
2022/08/18 14:59:19;;;;;;;;;;;;;;;;;;6033885;23;8517;-81
2022/08/18 15:01:44;;;;;;;;;;;;;;;;;;6039754;23;8560;-80
2022/08/18 15:04:10;;;;;;;;;;;;;;;;;;6040030;23;8498;-80
2022/08/18 15:06:36;;;;;;;;;;;;;;;;;;6039450;23;8501;-81
2022/08/18 15:09:01;;;;;;;;;;;;;;;;;;6037412;23;8939;-81
2022/08/18 15:11:27;;;;;;;;;;;;;;;;;;5987822;23;8433;-83
2022/08/18 15:13:53;;;;;;;;;;;;;;;;;;5987553;23;8591;-83
2022/08/18 15:16:22;;;;;;;;;;;;;;;;;;5988316;23;8450;-83
2022/08/18 15:18:48;;;;;;;;;;;;;;;;;;5987679;23;8748;-83
2022/08/18 15:26:42;;;;;;;;;;;;;;;;;;6012621;23;7144;-79
2022/08/18 15:29:09;;;;;;;;;;;;;;;;;;5988001;23;8525;-81
2022/08/18 15:31:35;;;;;;;;;;;;;;;;;;5987558;23;8743;-82
2022/08/18 15:34:02;;;;;;;;;;;;;;;;;;5987228;23;8459;-80
2022/08/18 15:36:30;;;;;;;;;;;;;;;;;;5987307;23;8524;-81
2022/08/18 15:38:59;;;;;;;;;;;;;;;;;;5983393;23;7230;-80
2022/08/18 15:41:36;;;;;;;;;;;;;;;;;;5984555;23;8726;-79
2022/08/18 15:44:03;;;;;;;;;;;;;;;;;;5986311;23;8810;-81
2022/08/18 15:46:31;;;;;;;;;;;;;;;;;;5986108;23;8465;-80
2022/08/18 15:48:56;;;;;;;;;;;;;;;;;;5986940;23;8501;-81
2022/08/18 15:51:22;;;;;;;;;;;;;;;;;;5985579;23;8463;-81
2022/08/18 15:53:47;;;;;;;;;;;;;;;;;;5985079;23;8713;-81
2022/08/18 15:56:15;;;;;;;;;;;;;;;;;;5980624;23;8531;-82
2022/08/18 15:58:44;;;;;;;;;;;;;;;;;;5986008;23;8477;-83
2022/08/18 16:01:10;;;;;;;;;;;;;;;;;;5985632;23;7090;-80
2022/08/18 16:03:36;;;;;;;;;;;;;;;;;;5985294;23;8558;-82
2022/08/18 16:06:04;;;;;;;;;;;;;;;;;;5986136;23;8504;-80
2022/08/18 16:08:30;;;;;;;;;;;;;;;;;;5985427;23;8565;-78
2022/08/18 16:10:56;;;;;;;;;;;;;;;;;;6030139;23;8459;-80
2022/08/18 16:13:23;;;;;;;;;;;;;;;;;;6039794;23;8473;-80
2022/08/18 16:15:49;;;;;;;;;;;;;;;;;;6039218;23;8870;-80
2022/08/18 16:18:21;;;;;;;;;;;;;;;;;;6038749;23;7100;-80
2022/08/18 16:20:48;;;;;;;;;;;;;;;;;;6039143;23;8423;-80
2022/08/18 16:23:14;;;;;;;;;;;;;;;;;;6039164;23;8869;-80
2022/08/18 16:25:42;;;;;;;;;;;;;;;;;;6038969;23;8752;-80
2022/08/18 16:28:08;;;;;;;;;;;;;;;;;;6039142;23;8536;-82
2022/08/18 16:30:34;;;;;;;;;;;;;;;;;;6039752;23;8796;-80
2022/08/18 16:33:02;;;;;;;;;;;;;;;;;;6038759;23;8479;-81
2022/08/18 16:35:29;;;;;;;;;;;;;;;;;;6039423;23;8447;-80
2022/08/18 16:37:54;;;;;;;;;;;;;;;;;;6039565;23;8730;-79
2022/08/18 16:40:20;;;;;;;;;;;;;;;;;;6038788;23;8491;-81
2022/08/18 16:42:46;;;;;;;;;;;;;;;;;;6039036;23;8511;-80
2022/08/18 16:45:12;;;;;;;;;;;;;;;;;;6039394;23;8418;-81
2022/08/18 16:47:40;;;;;;;;;;;;;;;;;;6038775;23;7472;-82
2022/08/18 16:50:10;;;;;;;;;;;;;;;;;;6039175;23;8445;-81
2022/08/18 16:52:36;;;;;;;;;;;;;;;;;;6040473;23;8894;-82
2022/08/18 16:55:03;;;;;;;;;;;;;;;;;;6040841;23;9347;-83
2022/08/18 17:05:46;;;;;;;;;;;;;;;;;;6042498;23;6815;-83
2022/08/18 17:08:12;;;;;;;;;;;;;;;;;;6040884;23;8439;-80
2022/08/18 17:10:40;;;;;;;;;;;;;;;;;;6040438;23;8812;-79
2022/08/18 17:13:05;;;;;;;;;;;;;;;;;;6040820;23;9113;-80
2022/08/18 17:15:32;;;;;;;;;;;;;;;;;;6040671;23;8923;-80
2022/08/18 17:17:57;;;;;;;;;;;;;;;;;;6040405;23;8513;-80
2022/08/18 17:20:22;;;;;;;;;;;;;;;;;;6040691;23;8445;-79
2022/08/18 17:22:48;;;;;;;;;;;;;;;;;;6041001;23;8489;-81
2022/08/18 17:25:20;;;;;;;;;;;;;;;;;;6041765;23;8894;-81
2022/08/18 17:27:47;;;;;;;;;;;;;;;;;;6041740;23;8500;-82
2022/08/18 17:30:16;;;;;;;;;;;;;;;;;;6041295;23;7439;-82
2022/08/18 17:32:45;;;;;;;;;;;;;;;;;;6041779;23;8427;-82
2022/08/18 17:35:14;;;;;;;;;;;;;;;;;;6041485;23;8893;-81
2022/08/18 17:38:01;;;;;;;;;;;;;;;;;;6041741;23;7862;-82
2022/08/18 17:40:47;;;;;;;;;;;;;;;;;;6041072;23;8702;-81
2022/08/18 17:43:17;;;;;;;;;;;;;;;;;;6042247;23;8765;-81
2022/08/18 17:45:48;;;;;;;;;;;;;;;;;;6043177;23;7146;-81
2022/08/18 17:48:13;;;;;;;;;;;;;;;;;;6042570;23;8440;-78
2022/08/18 17:53:35;;;;;;;;;;;;;;;;;;6042839;23;6935;-82
2022/08/18 17:56:13;;;;;;;;;;;;;;;;;;6041613;23;8481;-80
2022/08/18 17:58:41;;;;;;;;;;;;;;;;;;6041818;23;8420;-80
2022/08/18 18:01:08;;;;;;;;;;;;;;;;;;6041819;23;8996;-80